Terminal Aerodrome Forecast
Issued by NWS Greer, SC

Home | Current Version | Previous Version | Text Only | Print | Product List | Glossary On
Versions: 1 2 3 4 5 6 7 8 9 10 11 12 13 14 15 16 17 18 19 20 21 22 23 24 25 26 27 28 29 30 31 32 33 34 35 36 37 38 39 40 41 42 43 44 45 46 47 48 49 50
000
FTUS42 KGSP 052339
TAFAVL
TAF
KAVL 052339Z 0600/0624 19005KT P6SM VCSH SCT020 BKN045 OVC090
     FM060600 00000KT P6SM BKN040
     FM060800 31003KT 4SM BR BKN040
     FM061000 32003KT 2SM BR BKN040
     FM061200 32003KT P6SM BKN045
     FM061600 31004KT P6SM VCSH BKN050=

USA.gov is the U.S. government's official web portal to all federal, state and local government web resources and services.